Time;durP1;ratioP1;P1;durP2;ratioP2;P2;SDS_P1;SDS_P2;PMS_P1;PMS_P2;Temp;Humidity;BMP_temperature;BMP_pressure;BME280_temperature;BME280_humidity;BME280_pressure;Samples;Min_cycle;Max_cycle;Signal;HPM_P1;HPM_P2
2022/01/17 00:00:18;;;;;;;3.75;2.30;;;;;;;17.79;45.48;102881.44;5031463;28;20036;-47
2022/01/17 00:02:43;;;;;;;3.95;2.13;;;;;;;17.77;45.51;102884.25;5021731;28;20033;-48
2022/01/17 00:05:09;;;;;;;5.18;2.75;;;;;;;17.77;45.48;102883.41;5028949;28;20033;-45
2022/01/17 00:07:35;;;;;;;4.22;2.42;;;;;;;17.77;45.36;102888.78;5042530;28;20025;-46
2022/01/17 00:10:01;;;;;;;2.55;2.25;;;;;;;17.74;45.42;102890.72;5041871;28;20068;-46
2022/01/17 00:12:28;;;;;;;2.92;1.92;;;;;;;17.71;45.55;102892.72;5032966;28;20026;-44
2022/01/17 00:14:56;;;;;;;2.53;2.03;;;;;;;17.73;45.37;102888.09;5004354;28;20052;-45
2022/01/17 00:19:48;;;;;;;2.95;2.20;;;;;;;17.73;45.46;102891.66;5034708;28;20029;-49
2022/01/17 00:22:15;;;;;;;3.60;1.92;;;;;;;17.72;45.20;102891.78;5030454;28;20056;-49
2022/01/17 00:24:41;;;;;;;2.90;2.20;;;;;;;17.70;45.22;102894.56;5042047;28;20072;-45
2022/01/17 00:27:06;;;;;;;2.08;1.85;;;;;;;17.70;45.28;102899.94;5025028;28;20103;-47
2022/01/17 00:29:32;;;;;;;3.22;2.15;;;;;;;17.71;45.47;102895.41;5030412;28;20026;-50
2022/01/17 00:31:58;;;;;;;2.78;2.00;;;;;;;17.69;45.34;102909.00;5042694;28;20088;-48
2022/01/17 00:34:24;;;;;;;4.78;2.97;;;;;;;17.70;45.24;102910.69;5025011;28;20038;-46
2022/01/17 00:36:49;;;;;;;3.05;2.17;;;;;;;17.70;45.31;102905.31;5024509;28;20814;-48
2022/01/17 00:39:15;;;;;;;3.65;2.00;;;;;;;17.68;45.29;102901.91;5034005;28;20053;-44
2022/01/17 00:41:41;;;;;;;3.80;1.92;;;;;;;17.67;45.13;102905.56;5042221;28;20644;-43
2022/01/17 00:44:06;;;;;;;3.17;1.95;;;;;;;17.68;45.30;102903.75;5034309;28;20036;-44
2022/01/17 00:46:32;;;;;;;2.45;1.92;;;;;;;17.68;45.15;102898.34;5034377;28;20026;-49
2022/01/17 00:48:57;;;;;;;3.92;2.53;;;;;;;17.67;45.24;102893.91;5033909;28;20432;-46
2022/01/17 00:51:23;;;;;;;3.45;2.20;;;;;;;17.65;45.09;102904.81;5042290;28;20057;-44
2022/01/17 00:53:48;;;;;;;2.55;1.90;;;;;;;17.64;45.04;102903.09;5031995;28;20104;-45
2022/01/17 00:56:14;;;;;;;2.78;1.80;;;;;;;17.66;45.17;102900.28;5023346;28;20624;-47
2022/01/17 00:58:39;;;;;;;4.00;2.50;;;;;;;17.65;45.14;102895.88;5032838;28;20037;-45
2022/01/17 01:01:05;;;;;;;2.53;1.90;;;;;;;17.63;45.02;102889.75;5019772;28;20032;-44
2022/01/17 01:03:30;;;;;;;2.60;1.80;;;;;;;17.63;45.09;102895.16;5042746;28;20052;-46
2022/01/17 01:05:55;;;;;;;3.20;2.13;;;;;;;17.62;45.26;102905.03;5045726;28;20089;-43
2022/01/17 01:08:21;;;;;;;2.55;1.58;;;;;;;17.57;45.28;102904.50;5045650;28;20033;-44
2022/01/17 01:10:46;;;;;;;3.55;2.00;;;;;;;17.60;45.21;102912.34;5036784;28;20030;-44
2022/01/17 01:13:11;;;;;;;2.83;1.50;;;;;;;17.60;45.04;102901.59;5034533;28;20034;-46
2022/01/17 01:18:17;;;;;;;3.08;2.20;;;;;;;17.57;45.28;102885.66;5034806;28;20029;-43
2022/01/17 01:28:38;;;;;;;2.47;1.77;;;;;;;17.55;45.20;102890.31;5038753;28;20048;-48
2022/01/17 01:31:10;;;;;;;2.42;1.52;;;;;;;17.55;45.15;102911.84;5034222;28;21167;-46
2022/01/17 01:33:39;;;;;;;2.20;1.58;;;;;;;17.54;45.14;102926.22;5034146;28;20060;-45
2022/01/17 01:36:10;;;;;;;;;;;;;;;17.52;45.15;102930.03;5036525;28;20068;-44
2022/01/17 01:38:38;;;;;;;4.03;2.50;;;;;;;17.52;45.08;102927.34;5046560;28;19913;-44
2022/01/17 01:41:04;;;;;;;3.03;1.93;;;;;;;17.52;44.89;102911.19;5033355;28;20128;-45
2022/01/17 01:43:29;;;;;;;2.70;1.95;;;;;;;17.51;44.98;102912.16;4993448;28;20355;-44
2022/01/17 01:46:00;;;;;;;2.30;1.63;;;;;;;17.51;45.29;102912.16;5041569;28;20036;-51
2022/01/17 01:48:29;;;;;;;2.90;1.60;;;;;;;17.49;45.08;102896.13;5030512;28;20024;-44
2022/01/17 01:50:55;;;;;;;2.05;1.55;;;;;;;17.48;44.92;102900.66;5037855;28;20033;-45
2022/01/17 01:53:22;;;;;;;2.55;1.55;;;;;;;17.49;45.03;102907.75;5044871;28;20093;-44
2022/01/17 01:55:50;;;;;;;2.38;1.77;;;;;;;17.45;45.07;102918.84;5044705;28;20065;-48
2022/01/17 01:58:15;;;;;;;2.28;1.50;;;;;;;17.48;45.08;102929.38;5045221;28;20091;-46
2022/01/17 02:00:41;;;;;;;2.45;1.65;;;;;;;17.46;45.13;102934.88;5024586;28;20034;-46
2022/01/17 02:03:06;;;;;;;2.90;1.70;;;;;;;17.46;44.95;102942.94;5020001;28;20094;-48
2022/01/17 02:05:31;;;;;;;2.13;1.50;;;;;;;17.45;44.92;102940.34;5038366;28;20029;-47
2022/01/17 02:07:56;;;;;;;2.63;1.65;;;;;;;17.39;44.92;102924.66;5044476;28;20091;-47
2022/01/17 02:10:22;;;;;;;2.92;1.60;;;;;;;17.44;44.83;102936.78;5043449;28;20080;-43
2022/01/17 02:12:47;;;;;;;2.20;1.65;;;;;;;17.43;44.90;102939.59;5044658;28;20482;-46
2022/01/17 02:15:17;;;;;;;2.50;1.83;;;;;;;17.42;44.76;102941.44;5028509;28;20091;-44
2022/01/17 02:17:46;;;;;;;2.55;1.83;;;;;;;17.42;45.01;102932.53;5044714;28;20036;-47
2022/01/17 02:20:21;;;;;;;1.95;1.50;;;;;;;17.37;44.93;102907.75;5036257;28;20026;-49
2022/01/17 02:22:46;;;;;;;1.90;1.50;;;;;;;17.41;44.85;102914.63;5030504;28;20030;-44
2022/01/17 02:25:11;;;;;;;1.77;1.20;;;;;;;17.40;44.97;102911.09;5041374;28;20032;-49
2022/01/17 02:27:37;;;;;;;2.67;1.52;;;;;;;17.39;44.85;102911.22;5044453;28;20084;-47
2022/01/17 02:30:04;;;;;;;2.17;1.52;;;;;;;17.39;44.86;102920.13;5026207;28;20037;-49
2022/01/17 02:32:29;;;;;;;2.15;1.40;;;;;;;17.38;44.94;102914.88;5025256;28;20060;-46
2022/01/17 02:35:14;;;;;;;2.53;1.40;;;;;;;17.36;45.00;102923.03;5032673;28;20090;-45
2022/01/17 02:37:39;;;;;;;2.42;1.55;;;;;;;17.34;44.83;102916.06;5024741;28;20536;-45
2022/01/17 02:40:05;;;;;;;2.08;1.30;;;;;;;17.32;44.90;102924.22;5033178;28;20077;-47
2022/01/17 02:42:32;;;;;;;2.58;1.52;;;;;;;17.32;44.86;102929.59;5024994;28;20525;-46
2022/01/17 02:45:08;;;;;;;2.53;1.70;;;;;;;17.32;44.80;102921.53;5031537;28;20033;-47
2022/01/17 02:47:33;;;;;;;1.42;1.30;;;;;;;17.33;44.91;102927.78;5026236;28;20056;-43
2022/01/17 02:49:58;;;;;;;2.60;1.73;;;;;;;17.32;44.99;102928.75;5039269;28;20045;-46
2022/01/17 02:52:24;;;;;;;2.28;1.67;;;;;;;17.29;44.96;102927.16;5034700;28;20029;-45
2022/01/17 02:54:49;;;;;;;1.95;1.50;;;;;;;17.24;44.78;102914.00;5029456;28;20029;-48
2022/01/17 02:57:14;;;;;;;3.13;1.80;;;;;;;17.28;44.78;102928.09;5036979;28;20044;-43
2022/01/17 02:59:39;;;;;;;1.90;1.30;;;;;;;17.24;44.92;102922.06;5035844;28;20076;-47
2022/01/17 03:02:05;;;;;;;2.20;1.50;;;;;;;17.22;44.86;102910.59;5036898;28;20041;-44
2022/01/17 03:04:31;;;;;;;2.05;1.50;;;;;;;17.17;44.82;102896.63;5032167;28;20099;-47
2022/01/17 03:06:56;;;;;;;1.88;1.30;;;;;;;17.23;44.87;102917.66;5037484;28;20021;-44
2022/01/17 03:09:23;;;;;;;2.20;1.63;;;;;;;17.21;44.74;102908.88;5031718;28;20112;-43
2022/01/17 03:11:48;;;;;;;2.22;1.48;;;;;;;17.20;44.75;102909.84;5032496;28;20045;-43
2022/01/17 03:14:14;;;;;;;1.75;1.27;;;;;;;17.16;44.92;102908.34;5032176;28;20030;-43
2022/01/17 03:16:45;;;;;;;1.55;1.20;;;;;;;17.18;44.78;102925.22;5024438;28;20037;-44
2022/01/17 03:19:11;;;;;;;1.75;1.30;;;;;;;17.14;44.88;102917.47;5021736;28;20088;-46
2022/01/17 03:21:36;;;;;;;2.17;1.42;;;;;;;17.16;44.76;102915.53;5008160;28;20037;-46
2022/01/17 03:24:01;;;;;;;1.88;1.23;;;;;;;17.14;45.17;102925.53;5042701;28;20460;-46
2022/01/17 03:26:30;;;;;;;1.42;1.10;;;;;;;17.13;44.80;102929.19;5026376;28;20387;-45
2022/01/17 03:28:58;;;;;;;1.58;1.33;;;;;;;17.13;44.89;102934.56;5028348;28;20033;-44
2022/01/17 03:31:23;;;;;;;2.75;1.63;;;;;;;17.11;44.68;102940.03;5040301;28;20037;-46
2022/01/17 03:33:48;;;;;;;1.70;1.30;;;;;;;17.11;45.29;102949.94;5035675;28;20033;-45
2022/01/17 03:36:13;;;;;;;1.48;1.20;;;;;;;17.10;44.83;102935.63;5043338;28;20064;-46
2022/01/17 03:38:40;;;;;;;1.67;1.15;;;;;;;17.05;44.80;102927.03;5041535;28;20041;-43
2022/01/17 03:41:07;;;;;;;3.28;1.75;;;;;;;17.06;44.82;102920.69;5042782;28;20052;-44
2022/01/17 03:43:33;;;;;;;2.05;1.30;;;;;;;17.07;44.83;102926.94;5042997;28;20037;-45
2022/01/17 03:45:58;;;;;;;2.10;1.30;;;;;;;17.06;44.68;102926.06;5041726;28;20025;-45
2022/01/17 03:48:25;;;;;;;2.33;1.25;;;;;;;17.05;44.86;102918.97;5043437;28;20029;-44
2022/01/17 03:50:51;;;;;;;2.55;1.52;;;;;;;17.03;44.48;102920.91;5035203;28;20029;-45
2022/01/17 03:53:17;;;;;;;1.45;1.17;;;;;;;17.03;44.79;102914.66;5041649;28;20028;-44
2022/01/17 03:55:42;;;;;;;2.20;1.30;;;;;;;17.03;44.77;102930.78;5042041;28;20029;-43
2022/01/17 03:58:07;;;;;;;2.55;1.40;;;;;;;17.02;44.75;102929.94;5042998;28;20037;-44
2022/01/17 04:00:42;;;;;;;1.98;1.10;;;;;;;17.01;44.84;102933.59;5026055;28;20112;-43
2022/01/17 04:03:08;;;;;;;2.40;1.20;;;;;;;17.00;44.76;102939.94;5031839;28;20025;-46
2022/01/17 04:05:34;;;;;;;1.75;1.42;;;;;;;16.98;44.84;102947.25;5023670;28;20034;-44
2022/01/17 04:07:59;;;;;;;1.83;1.60;;;;;;;16.98;44.77;102942.72;5034464;28;20029;-45
2022/01/17 04:10:24;;;;;;;1.67;1.25;;;;;;;16.92;44.89;102940.47;5035076;28;20034;-45
2022/01/17 04:12:50;;;;;;;1.30;1.20;;;;;;;16.95;44.82;102944.78;5041199;28;20038;-43
2022/01/17 04:15:15;;;;;;;2.13;1.30;;;;;;;16.93;44.88;102950.25;5042881;28;20056;-43
2022/01/17 04:17:42;;;;;;;1.95;1.63;;;;;;;16.93;44.80;102957.44;5042015;28;20120;-44
2022/01/17 04:20:12;;;;;;;2.20;1.20;;;;;;;16.92;44.88;102961.13;5023585;28;20069;-45
2022/01/17 04:22:49;;;;;;;2.13;1.25;;;;;;;16.91;44.87;102952.19;5039696;28;20393;-46
2022/01/17 04:25:14;;;;;;;2.72;1.73;;;;;;;16.90;44.94;102945.06;5042278;28;20026;-44
2022/01/17 04:27:40;;;;;;;2.53;1.27;;;;;;;16.90;44.77;102944.22;5034941;28;20113;-44
2022/01/17 04:30:06;;;;;;;1.42;1.08;;;;;;;16.89;44.76;102942.50;5024358;28;20037;-42
2022/01/17 04:32:31;;;;;;;1.17;0.90;;;;;;;16.89;44.72;102935.31;5031604;28;20041;-44
2022/01/17 04:34:57;;;;;;;2.85;1.50;;;;;;;16.86;44.83;102930.13;5036076;28;20030;-45
2022/01/17 04:37:22;;;;;;;1.70;1.20;;;;;;;16.86;44.74;102932.81;5046484;28;20017;-43
2022/01/17 04:39:47;;;;;;;2.53;1.27;;;;;;;16.86;44.75;102929.28;5044437;28;20037;-48
2022/01/17 04:42:13;;;;;;;2.40;1.00;;;;;;;16.84;44.85;102934.75;5029966;28;20037;-45
2022/01/17 04:47:24;;;;;;;2.15;1.70;;;;;;;16.83;44.76;102938.44;5046489;28;20075;-45
2022/01/17 04:49:49;;;;;;;1.23;1.13;;;;;;;16.83;44.76;102949.16;5020078;28;20029;-45
2022/01/17 04:52:14;;;;;;;1.58;1.02;;;;;;;16.83;44.81;102938.44;5033631;28;20033;-48
2022/01/17 04:54:42;;;;;;;1.17;0.90;;;;;;;16.82;44.76;102946.56;5041458;28;20701;-44
2022/01/17 04:57:09;;;;;;;1.27;1.10;;;;;;;16.79;44.53;102946.81;5035396;28;20037;-46
2022/01/17 04:59:35;;;;;;;1.33;1.20;;;;;;;16.80;44.57;102953.88;5020478;28;20022;-47
2022/01/17 05:02:00;;;;;;;1.73;1.20;;;;;;;16.78;44.78;102940.56;5028493;28;20042;-44
2022/01/17 05:04:25;;;;;;;1.73;1.20;;;;;;;16.78;44.87;102937.00;5015125;28;20053;-43
2022/01/17 05:06:50;;;;;;;1.27;0.98;;;;;;;16.77;44.63;102932.59;5026500;28;20030;-48
2022/01/17 05:09:16;;;;;;;2.50;1.35;;;;;;;16.75;44.83;102940.78;5034144;28;20028;-43
2022/01/17 05:11:42;;;;;;;1.83;1.30;;;;;;;16.70;44.83;102938.38;5041745;28;20040;-45
2022/01/17 05:14:08;;;;;;;1.75;1.00;;;;;;;16.74;44.90;102944.44;5037744;28;20029;-43
2022/01/17 05:16:38;;;;;;;2.15;1.00;;;;;;;16.70;44.66;102937.50;5045278;28;20032;-45
2022/01/17 05:21:47;;;;;;;1.70;1.17;;;;;;;16.72;44.88;102938.25;5031986;28;20053;-43
2022/01/17 05:24:12;;;;;;;1.63;1.08;;;;;;;16.70;44.82;102934.84;5038109;28;20034;-47
2022/01/17 05:26:37;;;;;;;1.55;1.25;;;;;;;16.70;44.70;102956.31;5026501;28;20034;-46
2022/01/17 05:29:03;;;;;;;1.67;1.20;;;;;;;16.68;44.75;102964.47;5020261;28;20030;-47
2022/01/17 05:31:28;;;;;;;2.50;1.17;;;;;;;16.68;44.79;102971.66;5040065;28;20538;-47
2022/01/17 05:33:53;;;;;;;1.92;1.05;;;;;;;16.66;44.68;102965.53;5037973;28;20035;-44
2022/01/17 05:36:18;;;;;;;1.35;1.10;;;;;;;16.69;44.79;102970.69;5043498;28;20033;-45
2022/01/17 05:38:43;;;;;;;1.15;1.02;;;;;;;16.70;44.84;102986.72;5044571;28;20133;-42
2022/01/17 05:41:09;;;;;;;1.92;1.27;;;;;;;16.70;44.92;102992.09;5036933;28;20041;-44
2022/01/17 05:43:34;;;;;;;2.10;1.30;;;;;;;16.69;44.77;102984.13;5033444;28;20033;-43
2022/01/17 05:45:59;;;;;;;2.28;1.15;;;;;;;16.66;44.73;102979.84;5039858;28;20029;-45
2022/01/17 05:48:24;;;;;;;1.98;1.15;;;;;;;16.73;44.84;102980.28;5043211;28;20052;-43
2022/01/17 05:50:50;;;;;;;1.38;1.08;;;;;;;16.73;44.81;102977.59;5040125;28;20033;-43
2022/01/17 05:53:15;;;;;;;1.77;1.35;;;;;;;16.72;44.85;102967.81;5034425;28;20033;-44
2022/01/17 05:55:41;;;;;;;1.48;1.00;;;;;;;16.76;44.61;102960.44;5042132;28;20044;-49
2022/01/17 05:58:06;;;;;;;2.10;1.17;;;;;;;16.71;44.83;102941.91;5044042;28;20032;-44
2022/01/17 06:00:32;;;;;;;2.30;1.05;;;;;;;16.70;45.02;102951.81;5040094;28;20096;-47
2022/01/17 06:02:57;;;;;;;2.17;1.10;;;;;;;16.73;44.98;102958.81;5023947;28;20034;-46
2022/01/17 06:05:22;;;;;;;1.35;0.90;;;;;;;16.76;44.94;102968.50;5038894;28;20037;-44
2022/01/17 06:07:47;;;;;;;1.67;1.10;;;;;;;16.75;45.00;102970.31;5042960;28;20025;-44
2022/01/17 06:10:13;;;;;;;2.78;1.67;;;;;;;16.76;44.65;102963.13;5040541;28;20386;-44
2022/01/17 06:12:38;;;;;;;2.55;1.23;;;;;;;16.76;45.06;102969.34;5043008;28;20109;-46
2022/01/17 06:15:04;;;;;;;2.20;1.38;;;;;;;16.72;44.95;102963.31;5042565;28;20037;-44
2022/01/17 06:17:29;;;;;;;1.27;1.00;;;;;;;16.76;45.19;102969.34;5043202;28;20029;-45
2022/01/17 06:19:55;;;;;;;1.92;1.13;;;;;;;16.76;45.11;102966.66;5039362;28;20490;-45
2022/01/17 06:22:20;;;;;;;1.80;0.90;;;;;;;16.79;45.05;102962.91;5044492;28;20034;-44
2022/01/17 06:24:45;;;;;;;2.13;1.20;;;;;;;16.77;45.05;102951.41;5043744;28;20034;-44
2022/01/17 06:27:11;;;;;;;1.55;1.20;;;;;;;16.79;45.08;102960.25;5026297;28;20021;-42
2022/01/17 06:29:36;;;;;;;2.28;1.15;;;;;;;16.76;45.35;102957.75;5044075;28;20033;-42
2022/01/17 06:32:01;;;;;;;1.50;1.10;;;;;;;16.79;45.24;102953.03;5044201;28;20022;-43
2022/01/17 06:34:26;;;;;;;2.60;1.25;;;;;;;16.79;45.13;102963.78;5044210;28;20055;-44
2022/01/17 06:36:52;;;;;;;2.03;1.02;;;;;;;16.79;45.26;102966.47;5043843;28;20062;-43
2022/01/17 06:39:17;;;;;;;2.13;1.23;;;;;;;16.79;45.12;102954.88;5043053;28;20038;-43
2022/01/17 06:41:42;;;;;;;2.47;1.15;;;;;;;16.80;45.33;102957.44;5044704;28;20033;-44
2022/01/17 06:44:08;;;;;;;2.00;1.15;;;;;;;16.81;45.27;102955.59;5044079;28;20033;-44
2022/01/17 06:46:34;;;;;;;1.67;1.10;;;;;;;16.81;45.27;102948.41;5043870;28;20029;-44
2022/01/17 06:48:59;;;;;;;1.50;1.20;;;;;;;16.82;45.17;102949.25;5026154;28;20025;-45
2022/01/17 06:51:25;;;;;;;2.33;1.30;;;;;;;16.80;45.40;102953.88;5043857;28;20106;-46
2022/01/17 06:53:50;;;;;;;1.17;1.02;;;;;;;16.83;45.61;102970.66;5043160;28;20061;-44
2022/01/17 06:56:16;;;;;;;2.55;1.00;;;;;;;16.82;45.18;102965.38;5043287;28;20025;-45
2022/01/17 06:58:42;;;;;;;2.45;1.13;;;;;;;16.83;45.32;102986.78;5025816;28;20026;-46
2022/01/17 07:01:08;;;;;;;0.93;0.80;;;;;;;16.83;45.39;102996.66;5043273;28;20078;-44
2022/01/17 07:03:34;;;;;;;2.50;1.75;;;;;;;16.83;45.28;103007.41;5042530;28;20040;-44
2022/01/17 07:05:59;;;;;;;2.50;1.50;;;;;;;16.78;45.21;103031.91;5043615;28;20033;-48
2022/01/17 07:08:24;;;;;;;1.25;0.88;;;;;;;16.82;45.53;103054.03;5043333;28;20033;-43
2022/01/17 07:10:50;;;;;;;1.63;1.20;;;;;;;16.83;45.55;103047.72;5042685;28;20021;-46
2022/01/17 07:13:15;;;;;;;1.30;0.90;;;;;;;16.82;45.02;103027.16;5023136;28;20071;-44
2022/01/17 07:15:40;;;;;;;2.25;1.13;;;;;;;16.82;45.42;103011.94;5043165;28;20078;-43
2022/01/17 07:18:06;;;;;;;0.82;0.82;;;;;;;16.82;45.43;103017.31;5043462;28;20025;-45
2022/01/17 07:20:32;;;;;;;1.50;1.10;;;;;;;16.82;45.45;103011.94;5043056;28;20021;-45
2022/01/17 07:22:57;;;;;;;2.20;1.40;;;;;;;16.85;45.36;103019.75;5031806;28;20445;-46
2022/01/17 07:25:23;;;;;;;2.53;1.10;;;;;;;16.89;45.56;103013.22;5011532;28;20113;-42
2022/01/17 07:27:48;;;;;;;3.33;1.63;;;;;;;16.94;45.25;103004.84;5033382;28;20056;-46
2022/01/17 07:30:13;;;;;;;3.10;1.30;;;;;;;16.98;45.48;103020.66;5016000;28;20100;-46
2022/01/17 07:32:38;;;;;;;2.78;1.55;;;;;;;17.03;45.38;103016.78;5029365;28;20038;-44
2022/01/17 07:35:06;;;;;;;2.65;1.35;;;;;;;17.05;45.27;103014.88;4998832;28;20034;-43
2022/01/17 07:37:31;;;;;;;4.57;1.73;;;;;;;17.09;45.21;103021.75;5001786;28;20034;-45
2022/01/17 07:39:56;;;;;;;3.28;1.55;;;;;;;17.14;45.12;103027.69;5006375;28;20184;-47
2022/01/17 07:42:22;;;;;;;5.97;1.60;;;;;;;17.10;45.08;103024.34;5021408;28;20363;-42
2022/01/17 07:44:53;;;;;;;4.40;1.45;;;;;;;17.15;45.16;103007.88;5035265;28;20052;-47
2022/01/17 07:47:25;;;;;;;4.25;1.70;;;;;;;17.17;45.03;103011.34;5016267;28;20041;-44
2022/01/17 07:49:50;;;;;;;5.35;1.63;;;;;;;17.20;45.04;103009.31;5017361;28;20111;-43
2022/01/17 07:52:16;;;;;;;3.72;1.52;;;;;;;17.23;44.95;103018.97;5031283;28;20045;-46
2022/01/17 07:54:44;;;;;;;3.40;1.70;;;;;;;17.22;45.12;103019.94;5023185;28;20034;-46
2022/01/17 07:57:10;;;;;;;1.73;1.40;;;;;;;17.26;44.81;103032.22;5021619;28;20487;-44
2022/01/17 07:59:35;;;;;;;4.93;1.90;;;;;;;17.24;44.98;103032.28;5021703;28;20048;-45
2022/01/17 08:02:01;;;;;;;4.30;1.70;;;;;;;17.28;44.99;103048.22;5021849;28;20038;-43
2022/01/17 08:04:26;;;;;;;4.55;1.90;;;;;;;17.27;45.06;103049.19;5020003;28;20025;-42
2022/01/17 08:06:51;;;;;;;3.83;1.70;;;;;;;17.31;44.88;103059.63;5005156;28;20033;-43
2022/01/17 08:09:19;;;;;;;3.80;2.05;;;;;;;17.32;44.90;103063.19;5007405;28;20021;-44
2022/01/17 08:11:45;;;;;;;2.80;1.50;;;;;;;17.30;44.88;103060.59;5028161;28;20018;-47
2022/01/17 08:14:11;;;;;;;3.63;1.65;;;;;;;17.30;44.95;103057.91;5030131;28;20553;-46
2022/01/17 08:16:38;;;;;;;3.90;1.90;;;;;;;17.31;45.08;103062.31;5029194;28;20030;-42
2022/01/17 08:19:04;;;;;;;3.72;1.50;;;;;;;17.33;44.81;103056.81;5010830;28;20029;-45
2022/01/17 08:21:29;;;;;;;3.58;1.40;;;;;;;17.33;44.80;103056.81;5023642;28;20049;-43
2022/01/17 08:23:54;;;;;;;5.07;1.90;;;;;;;17.31;44.94;103039.97;5021702;28;20025;-45
2022/01/17 08:26:21;;;;;;;4.53;1.90;;;;;;;17.33;44.79;103040.69;5036031;28;20067;-45
2022/01/17 08:28:46;;;;;;;4.68;1.80;;;;;;;17.32;44.58;103037.16;5024649;28;20025;-42
2022/01/17 08:31:12;;;;;;;3.83;1.60;;;;;;;17.34;44.76;103043.28;5019941;28;20695;-47
2022/01/17 08:33:37;;;;;;;4.75;1.67;;;;;;;17.30;44.76;103039.09;5007179;28;20030;-47
2022/01/17 08:36:03;;;;;;;5.40;2.08;;;;;;;17.37;44.73;103044.91;5029104;28;20046;-45
2022/01/17 08:38:30;;;;;;;4.63;2.00;;;;;;;17.31;44.52;103032.75;5029736;28;20033;-45
2022/01/17 08:40:57;;;;;;;4.65;2.08;;;;;;;17.38;44.67;103043.94;5026482;28;20038;-47
2022/01/17 08:43:22;;;;;;;4.10;1.80;;;;;;;17.41;44.58;103030.28;5025588;28;20093;-55
2022/01/17 08:45:48;;;;;;;4.18;1.80;;;;;;;17.40;44.79;103036.63;5028629;28;20061;-42
2022/01/17 08:48:14;;;;;;;4.40;2.08;;;;;;;17.38;44.55;103035.88;5005554;28;20029;-46
2022/01/17 08:50:41;;;;;;;6.13;2.08;;;;;;;17.43;44.47;103036.41;5011783;28;20031;-51
2022/01/17 08:53:10;;;;;;;4.15;2.10;;;;;;;17.44;44.71;103048.88;5023101;28;20089;-46
2022/01/17 08:55:35;;;;;;;3.75;1.73;;;;;;;17.41;44.82;103051.78;5029584;28;20056;-44
2022/01/17 08:58:01;;;;;;;3.85;1.63;;;;;;;17.41;44.78;103049.09;5015143;28;20029;-45
2022/01/17 09:00:26;;;;;;;4.20;1.90;;;;;;;17.49;44.78;103065.56;5018519;28;20041;-51
2022/01/17 09:02:51;;;;;;;5.97;2.17;;;;;;;17.48;44.87;103051.25;5031337;28;20546;-46
2022/01/17 09:05:16;;;;;;;2.80;1.85;;;;;;;17.51;44.90;103057.41;5005337;28;20045;-45
2022/01/17 09:07:42;;;;;;;3.20;1.90;;;;;;;17.54;44.84;103067.94;5008422;28;20045;-48
2022/01/17 09:10:07;;;;;;;2.80;1.73;;;;;;;17.51;44.77;103060.94;5026274;28;20038;-48
2022/01/17 09:12:33;;;;;;;5.55;1.80;;;;;;;17.57;45.12;103065.88;5008851;28;20026;-43
2022/01/17 09:14:59;;;;;;;2.80;1.67;;;;;;;17.56;44.75;103074.94;5033065;28;20095;-44
2022/01/17 09:17:24;;;;;;;3.72;1.80;;;;;;;17.63;44.67;103087.00;5025476;28;20094;-44
2022/01/17 09:19:50;;;;;;;3.70;1.80;;;;;;;17.65;44.85;103095.81;5010459;28;20084;-48
2022/01/17 09:22:15;;;;;;;4.60;1.90;;;;;;;17.68;44.73;103110.88;5023877;28;20038;-49
2022/01/17 09:24:41;;;;;;;7.60;2.67;;;;;;;17.67;44.67;103103.75;5023407;28;20037;-47
2022/01/17 09:27:06;;;;;;;3.92;1.70;;;;;;;17.71;44.73;103108.84;5036848;28;20087;-47
2022/01/17 09:29:33;;;;;;;3.08;1.75;;;;;;;17.65;44.56;103106.56;5023250;28;20061;-47
2022/01/17 09:31:59;;;;;;;4.03;1.77;;;;;;;17.75;44.63;103122.94;5027501;28;20105;-45
2022/01/17 09:34:24;;;;;;;3.50;1.80;;;;;;;17.76;44.82;103113.94;5031756;28;20026;-46
2022/01/17 09:36:50;;;;;;;3.92;1.50;;;;;;;17.79;44.56;103107.47;5028595;28;20097;-46
2022/01/17 09:39:15;;;;;;;5.28;2.00;;;;;;;17.79;44.51;103119.06;5044453;28;20046;-46
2022/01/17 09:41:41;;;;;;;3.45;1.80;;;;;;;17.81;44.45;103122.53;5045353;28;20033;-44
2022/01/17 09:44:06;;;;;;;3.85;1.95;;;;;;;17.84;44.48;103127.72;5041805;28;20045;-48
2022/01/17 09:46:39;;;;;;;5.20;1.85;;;;;;;17.85;44.38;103125.88;5040893;28;20021;-47
2022/01/17 09:49:22;;;;;;;3.70;1.70;;;;;;;17.86;44.21;103133.84;5045062;28;20085;-44
2022/01/17 09:54:29;;;;;;;2.58;1.65;;;;;;;17.92;44.20;103138.78;5044263;28;20025;-45
2022/01/17 09:56:55;;;;;;;3.67;1.83;;;;;;;17.93;44.08;103143.22;5028855;28;20398;-45
2022/01/17 09:59:21;;;;;;;3.20;1.45;;;;;;;17.96;44.05;103159.13;5032104;28;20478;-44
2022/01/17 10:01:47;;;;;;;3.83;1.80;;;;;;;17.96;44.12;103158.25;5033488;28;20471;-44
2022/01/17 10:04:13;;;;;;;2.75;1.73;;;;;;;17.95;43.98;103148.47;5028337;28;20033;-47
2022/01/17 10:06:40;;;;;;;4.50;1.50;;;;;;;17.98;43.94;103143.75;5038469;28;20026;-44
2022/01/17 10:09:22;;;;;;;4.10;2.03;;;;;;;17.99;44.14;103136.53;5032728;28;20073;-49
2022/01/17 10:12:14;;;;;;;3.53;1.85;;;;;;;18.01;43.80;103142.69;5040726;28;20029;-45
2022/01/17 10:14:57;;;;;;;4.03;1.92;;;;;;;18.02;43.88;103138.16;5026671;28;20033;-50
2022/01/17 10:17:23;;;;;;;3.17;1.38;;;;;;;18.04;44.07;103118.22;5039130;28;20069;-46
2022/01/17 10:19:58;;;;;;;4.38;1.67;;;;;;;18.08;43.85;103116.16;5044275;28;20118;-44
2022/01/17 10:22:30;;;;;;;6.03;1.80;;;;;;;18.11;43.83;103121.34;5034807;28;20401;-47
2022/01/17 10:25:27;;;;;;;4.05;2.05;;;;;;;18.17;43.96;103124.44;5026194;28;20141;-41
2022/01/17 10:28:20;;;;;;;5.45;1.70;;;;;;;18.23;43.57;103132.09;5037426;28;20116;-45
2022/01/17 10:31:18;;;;;;;4.43;1.63;;;;;;;18.29;43.54;103124.53;5022876;28;20505;-42
2022/01/17 10:36:17;;;;;;;4.43;2.60;;;;;;;18.36;43.73;103120.44;5028464;28;20092;-41
2022/01/17 10:38:42;;;;;;;5.90;2.25;;;;;;;18.38;43.67;103121.16;5003591;28;20034;-43
2022/01/17 10:41:08;;;;;;;5.28;2.20;;;;;;;18.48;43.41;103150.03;5006302;28;20050;-44
2022/01/17 10:43:38;;;;;;;6.32;2.17;;;;;;;18.49;43.44;103142.81;5036754;28;20096;-46
2022/01/17 10:46:09;;;;;;;6.07;2.15;;;;;;;18.48;43.26;103163.50;5007676;28;20106;-47
2022/01/17 10:48:36;;;;;;;5.07;2.05;;;;;;;18.49;43.54;103167.91;4999032;28;20035;-45
2022/01/17 10:51:06;;;;;;;3.58;1.58;;;;;;;18.47;43.57;103148.28;5021862;28;20037;-43
2022/01/17 10:53:32;;;;;;;4.72;1.98;;;;;;;18.47;43.54;103150.97;5029632;28;20024;-44
2022/01/17 10:55:59;;;;;;;5.15;2.40;;;;;;;18.48;43.41;103154.56;5014238;28;20025;-43
2022/01/17 10:58:28;;;;;;;5.75;2.50;;;;;;;18.43;43.35;103143.25;5025736;28;20037;-45
2022/01/17 11:01:01;;;;;;;4.88;1.88;;;;;;;18.48;43.30;103158.13;5031124;28;20045;-48
2022/01/17 11:03:29;;;;;;;5.13;2.08;;;;;;;18.48;43.44;103171.59;5034154;28;20044;-45
2022/01/17 11:05:57;;;;;;;5.55;2.10;;;;;;;18.48;43.14;103181.50;5022700;28;20034;-48
2022/01/17 11:08:25;;;;;;;5.30;1.95;;;;;;;18.47;43.28;103191.38;5029427;28;20037;-44
2022/01/17 11:10:53;;;;;;;4.43;1.80;;;;;;;18.46;43.19;103195.06;5028418;28;20453;-47
2022/01/17 11:13:20;;;;;;;3.05;1.60;;;;;;;18.46;43.28;103192.38;5026448;28;20097;-48
2022/01/17 11:15:52;;;;;;;3.78;2.00;;;;;;;18.47;43.16;103198.63;5028953;28;20025;-47
2022/01/17 11:18:22;;;;;;;5.45;2.35;;;;;;;18.46;43.26;103186.13;5026156;28;20050;-47
2022/01/17 11:20:50;;;;;;;4.35;1.73;;;;;;;18.47;43.18;103185.16;5029846;28;20030;-50
2022/01/17 11:23:16;;;;;;;3.55;1.80;;;;;;;18.45;43.38;103181.72;5036286;28;20055;-49
2022/01/17 11:25:43;;;;;;;4.25;1.75;;;;;;;18.46;43.33;103188.81;5033248;28;20088;-48
2022/01/17 11:28:09;;;;;;;4.22;1.95;;;;;;;18.48;43.01;103185.06;5029369;28;20463;-45
2022/01/17 11:30:36;;;;;;;5.82;2.13;;;;;;;18.46;43.48;103178.91;5032876;28;20031;-47
2022/01/17 11:33:04;;;;;;;5.10;1.90;;;;;;;18.49;43.08;103185.91;5035126;28;20034;-48
2022/01/17 11:35:30;;;;;;;4.70;1.70;;;;;;;18.51;43.46;103180.41;5026490;28;20108;-48
2022/01/17 11:37:58;;;;;;;5.60;2.10;;;;;;;18.51;43.31;103183.09;5036354;28;20053;-46
2022/01/17 11:40:43;;;;;;;5.35;2.30;;;;;;;18.51;43.46;103191.19;5025704;28;20054;-46
2022/01/17 11:43:21;;;;;;;5.30;2.28;;;;;;;18.53;43.16;103186.56;5036689;28;20029;-48
2022/01/17 11:45:48;;;;;;;5.00;1.90;;;;;;;18.53;43.53;103187.41;5038322;28;20017;-47